Time;durP1;ratioP1;P1;durP2;ratioP2;P2;SDS_P1;SDS_P2;PMS_P1;PMS_P2;Temp;Humidity;BMP_temperature;BMP_pressure;BME280_temperature;BME280_humidity;BME280_pressure;Samples;Min_cycle;Max_cycle;Signal;HPM_P1;HPM_P2
2022/07/01 00:01:49;;;;;;;13.70;2.80;;;;;;;16.99;100.00;101315.75;4991066;28;20285;-75
2022/07/01 00:04:15;;;;;;;14.80;2.80;;;;;;;17.13;100.00;101338.91;4991614;28;20243;-74
2022/07/01 00:06:40;;;;;;;11.63;2.63;;;;;;;17.31;100.00;101348.88;4994018;28;21150;-72
2022/07/01 00:09:06;;;;;;;8.40;2.00;;;;;;;16.78;100.00;101250.19;4991826;28;20756;-74
2022/07/01 00:11:31;;;;;;;8.20;1.67;;;;;;;16.76;100.00;101265.00;5006172;28;20222;-73
2022/07/01 00:13:57;;;;;;;7.50;1.87;;;;;;;16.98;100.00;101311.38;4992491;28;20209;-74
2022/07/01 00:16:22;;;;;;;4.40;1.30;;;;;;;16.97;100.00;101323.28;4991795;28;20439;-72
2022/07/01 00:18:48;;;;;;;5.80;1.03;;;;;;;16.88;100.00;101265.88;4992706;28;20247;-74
2022/07/01 00:21:14;;;;;;;4.73;1.30;;;;;;;16.68;100.00;101290.50;4994967;28;20569;-72
2022/07/01 00:23:40;;;;;;;5.80;1.30;;;;;;;17.21;100.00;101333.16;4992096;28;20188;-74
2022/07/01 00:26:06;;;;;;;8.37;1.73;;;;;;;16.67;100.00;101288.84;4988395;28;20451;-72
2022/07/01 00:28:31;;;;;;;5.37;1.10;;;;;;;16.78;100.00;101333.31;4991361;28;20448;-73
2022/07/01 00:30:57;;;;;;;4.03;1.60;;;;;;;16.84;100.00;101322.41;5005933;28;20213;-72
2022/07/01 00:33:22;;;;;;;7.43;1.43;;;;;;;16.69;100.00;101335.47;4994399;28;20199;-74
2022/07/01 00:35:47;;;;;;;7.50;1.37;;;;;;;16.97;100.00;101362.03;4989768;28;20212;-72
2022/07/01 00:38:13;;;;;;;7.37;1.50;;;;;;;16.96;100.00;101356.88;5008015;28;20654;-72
2022/07/01 00:40:38;;;;;;;5.70;1.00;;;;;;;16.76;100.00;101352.53;4990606;28;20181;-76
2022/07/01 00:43:04;;;;;;;6.63;1.50;;;;;;;16.82;100.00;101335.34;4995351;28;20216;-72
2022/07/01 00:45:30;;;;;;;10.43;1.87;;;;;;;16.57;100.00;101310.22;4993895;28;20574;-72
2022/07/01 00:47:55;;;;;;;2.93;0.90;;;;;;;16.50;100.00;101272.41;4990274;28;21036;-72
2022/07/01 00:50:21;;;;;;;10.30;1.60;;;;;;;16.79;100.00;101302.50;4991405;28;20286;-71
2022/07/01 00:52:46;;;;;;;5.40;1.20;;;;;;;16.29;100.00;101214.16;5003947;28;20208;-72
2022/07/01 00:55:13;;;;;;;7.10;1.20;;;;;;;16.84;100.00;101306.16;4992649;28;20193;-72
2022/07/01 00:57:41;;;;;;;3.23;1.10;;;;;;;16.84;100.00;101322.41;4990738;28;20205;-78
2022/07/01 01:00:11;;;;;;;4.50;1.20;;;;;;;16.75;100.00;101315.63;4991795;28;20444;-72
2022/07/01 01:02:37;;;;;;;4.13;1.20;;;;;;;16.75;100.00;101312.94;4991041;28;20471;-72
2022/07/01 01:05:04;;;;;;;4.00;1.20;;;;;;;16.88;100.00;101341.75;5008147;28;20570;-72
2022/07/01 01:07:31;;;;;;;3.77;1.20;;;;;;;16.88;100.00;101349.88;4993453;28;20448;-74
2022/07/01 01:09:57;;;;;;;3.60;1.30;;;;;;;16.43;100.00;101313.09;4996100;28;20461;-70
2022/07/01 01:12:25;;;;;;;3.60;1.60;;;;;;;16.85;100.00;101334.91;4997490;28;20502;-70
2022/07/01 01:14:50;;;;;;;4.50;1.33;;;;;;;16.94;100.00;101308.31;4990027;28;20443;-70
2022/07/01 01:17:18;;;;;;;4.43;1.00;;;;;;;16.73;100.00;101315.84;4990734;28;20502;-71
2022/07/01 01:19:44;;;;;;;3.40;1.00;;;;;;;16.81;100.00;101354.56;4990034;28;20193;-71
2022/07/01 01:22:13;;;;;;;3.70;1.10;;;;;;;16.58;100.00;101368.75;4995174;28;20542;-70
2022/07/01 01:24:39;;;;;;;2.50;0.93;;;;;;;16.43;100.00;101323.06;4993657;28;20437;-74
2022/07/01 01:27:05;;;;;;;2.43;1.03;;;;;;;16.57;100.00;101386.03;4987751;28;20812;-70
2022/07/01 01:29:31;;;;;;;3.43;1.00;;;;;;;16.40;100.00;101347.91;4992611;28;20573;-70
2022/07/01 01:31:56;;;;;;;3.40;0.93;;;;;;;16.48;100.00;101367.38;4992525;28;20694;-73
2022/07/01 01:34:22;;;;;;;3.07;0.90;;;;;;;16.79;100.00;101378.34;4995975;28;20526;-70
2022/07/01 01:36:47;;;;;;;3.80;1.30;;;;;;;16.59;100.00;101381.25;4990780;28;20194;-71
2022/07/01 01:39:16;;;;;;;4.93;0.90;;;;;;;16.59;100.00;101394.78;5005856;28;20196;-71
2022/07/01 01:41:42;;;;;;;3.70;0.93;;;;;;;16.59;100.00;101392.06;4989800;28;20208;-71
2022/07/01 01:44:08;;;;;;;3.53;0.80;;;;;;;16.57;100.00;101388.75;4988163;28;20447;-70
2022/07/01 01:46:34;;;;;;;2.50;1.07;;;;;;;16.15;100.00;101364.22;4996082;28;20445;-73
2022/07/01 01:49:00;;;;;;;2.57;1.00;;;;;;;16.62;100.00;101402.47;4992678;28;20276;-71
2022/07/01 01:51:26;;;;;;;1.00;0.70;;;;;;;16.80;100.00;101393.53;4989863;28;20506;-71
2022/07/01 01:53:52;;;;;;;1.40;0.80;;;;;;;16.46;100.00;101377.63;4987425;28;20441;-70
2022/07/01 01:56:17;;;;;;;3.13;0.90;;;;;;;16.41;100.00;101336.03;4991246;28;21415;-71
2022/07/01 01:58:44;;;;;;;1.13;0.80;;;;;;;16.52;100.00;101361.50;4992387;28;20193;-70
2022/07/01 02:01:10;;;;;;;0.80;0.80;;;;;;;16.52;100.00;101373.19;4992771;28;20283;-70
2022/07/01 02:03:37;;;;;;;1.73;0.70;;;;;;;16.64;100.00;101382.22;4994027;28;20452;-71
2022/07/01 02:06:04;;;;;;;0.90;0.60;;;;;;;16.40;100.00;101354.16;5007310;28;20502;-73
2022/07/01 02:08:29;;;;;;;2.50;0.80;;;;;;;16.39;100.00;101362.50;5009652;28;20444;-71
2022/07/01 02:10:55;;;;;;;1.17;0.60;;;;;;;16.46;100.00;101365.94;4992648;28;20476;-71
2022/07/01 02:13:20;;;;;;;3.93;0.80;;;;;;;16.58;100.00;101338.97;4995399;28;20204;-73
2022/07/01 02:15:46;;;;;;;2.37;0.70;;;;;;;16.66;100.00;101371.16;4996278;28;20716;-71
2022/07/01 02:18:11;;;;;;;1.80;0.60;;;;;;;16.65;100.00;101364.91;4994261;28;20200;-71
2022/07/01 02:20:36;;;;;;;1.17;0.60;;;;;;;16.49;100.00;101368.25;5006180;28;26794;-72
2022/07/01 02:23:02;;;;;;;2.97;0.77;;;;;;;16.58;100.00;101377.72;4995101;28;20213;-71
2022/07/01 02:25:27;;;;;;;1.00;0.60;;;;;;;16.41;100.00;101360.41;4994257;28;20620;-72
2022/07/01 02:27:53;;;;;;;1.63;1.00;;;;;;;16.45;100.00;101361.59;5002039;28;20195;-71
2022/07/01 02:30:18;;;;;;;1.10;0.60;;;;;;;16.36;100.00;101358.34;4994631;28;20270;-70
2022/07/01 02:32:44;;;;;;;2.40;1.10;;;;;;;16.13;100.00;101323.81;4998345;28;20220;-72
2022/07/01 02:35:10;;;;;;;1.07;0.83;;;;;;;16.20;100.00;101376.03;4994969;28;20193;-71
2022/07/01 02:37:35;;;;;;;3.27;0.80;;;;;;;16.22;100.00;101348.72;4996563;28;20184;-72
2022/07/01 02:40:02;;;;;;;1.83;0.70;;;;;;;16.75;100.00;101388.78;4994884;28;20445;-70
2022/07/01 02:42:31;;;;;;;0.97;0.60;;;;;;;16.26;100.00;101302.03;4996498;28;20220;-71
2022/07/01 02:44:56;;;;;;;2.00;0.70;;;;;;;16.73;100.00;101405.25;4991566;28;20440;-71
2022/07/01 02:47:22;;;;;;;2.27;0.80;;;;;;;16.76;100.00;101400.44;4997673;28;20450;-71
2022/07/01 02:49:49;;;;;;;2.83;1.00;;;;;;;16.25;100.00;101305.78;4990540;28;20281;-71
2022/07/01 02:52:15;;;;;;;1.20;0.70;;;;;;;16.42;100.00;101419.72;4993320;28;20694;-70
2022/07/01 02:54:41;;;;;;;2.63;0.93;;;;;;;16.33;100.00;101417.53;4995475;28;20439;-73
2022/07/01 02:57:07;;;;;;;2.03;0.83;;;;;;;16.49;100.00;101423.22;4992253;28;20436;-71
2022/07/01 02:59:33;;;;;;;2.87;0.90;;;;;;;16.33;100.00;101418.38;4993213;28;20878;-71
2022/07/01 03:01:58;;;;;;;1.17;0.80;;;;;;;16.51;100.00;101428.38;4994977;28;20461;-71
2022/07/01 03:04:24;;;;;;;1.47;0.70;;;;;;;16.22;100.00;101405.56;4989694;28;20243;-72
2022/07/01 03:06:49;;;;;;;1.50;0.90;;;;;;;16.09;100.00;101379.47;4992930;28;20205;-71
2022/07/01 03:09:15;;;;;;;1.47;1.10;;;;;;;15.80;100.00;101391.78;4992165;28;20185;-72
2022/07/01 03:11:40;;;;;;;3.27;1.10;;;;;;;16.25;100.00;101424.06;4993585;28;20595;-75
2022/07/01 03:14:05;;;;;;;2.53;1.17;;;;;;;16.24;100.00;101425.13;4989604;28;20189;-74
2022/07/01 03:16:31;;;;;;;2.80;1.23;;;;;;;16.15;100.00;101386.69;4993642;28;20624;-73
2022/07/01 03:18:57;;;;;;;1.87;1.10;;;;;;;16.34;100.00;101411.88;4989694;28;20631;-71
2022/07/01 03:21:23;;;;;;;4.63;0.97;;;;;;;16.14;100.00;101392.31;4992740;28;20718;-71
2022/07/01 03:23:48;;;;;;;2.93;1.00;;;;;;;16.23;100.00;101424.28;4996153;28;20538;-71
2022/07/01 03:26:14;;;;;;;1.73;0.90;;;;;;;16.19;100.00;101395.19;5007346;28;20244;-71
2022/07/01 03:28:40;;;;;;;1.00;0.90;;;;;;;16.52;100.00;101421.94;4988820;28;20193;-77
2022/07/01 03:31:05;;;;;;;2.23;1.00;;;;;;;15.96;100.00;101423.66;4985631;28;20847;-73
2022/07/01 03:33:31;;;;;;;1.43;0.80;;;;;;;16.26;100.00;101431.16;4997610;28;20189;-72
2022/07/01 03:35:56;;;;;;;1.60;0.93;;;;;;;16.38;100.00;101442.91;4991212;28;20185;-73
2022/07/01 03:38:22;;;;;;;3.53;1.10;;;;;;;16.26;100.00;101431.16;4990919;28;20188;-74
2022/07/01 03:40:47;;;;;;;1.53;0.80;;;;;;;16.31;100.00;101415.03;4988811;28;20260;-71
2022/07/01 03:43:12;;;;;;;2.77;0.97;;;;;;;15.84;100.00;101346.16;4992410;28;20197;-72
2022/07/01 03:45:39;;;;;;;1.77;0.90;;;;;;;16.10;100.00;101407.34;4991805;28;20185;-74
2022/07/01 03:48:05;;;;;;;1.37;0.90;;;;;;;16.46;100.00;101439.06;4986581;28;20185;-72
2022/07/01 03:50:31;;;;;;;1.50;1.00;;;;;;;15.99;100.00;101406.16;4996862;28;21067;-73
2022/07/01 03:55:41;;;;;;;1.87;1.50;;;;;;;16.18;100.00;101448.47;4995394;28;20276;-76
2022/07/01 03:58:06;;;;;;;3.07;1.33;;;;;;;16.24;100.00;101465.72;5006948;28;20440;-73
2022/07/01 04:00:35;;;;;;;3.60;1.73;;;;;;;16.18;100.00;101448.47;4993060;28;20225;-75
2022/07/01 04:03:01;;;;;;;3.40;1.67;;;;;;;15.93;100.00;101434.94;4992990;28;21322;-73
2022/07/01 04:05:26;;;;;;;2.90;2.07;;;;;;;15.73;100.00;101447.78;4994471;28;20987;-72
2022/07/01 04:07:52;;;;;;;1.97;1.77;;;;;;;15.94;100.00;101476.34;5006633;28;20193;-72
2022/07/01 04:10:17;;;;;;;1.70;1.40;;;;;;;15.88;100.00;101467.25;4997286;28;20220;-72
2022/07/01 04:12:43;;;;;;;2.20;1.23;;;;;;;16.20;100.00;101487.00;4993066;28;20713;-74
2022/07/01 04:15:09;;;;;;;3.03;1.53;;;;;;;15.45;100.00;101407.56;4996651;28;20200;-73
2022/07/01 04:17:35;;;;;;;2.30;1.40;;;;;;;15.54;100.00;101469.28;4993223;28;21474;-75
2022/07/01 04:20:01;;;;;;;1.63;1.10;;;;;;;16.10;100.00;101480.41;4996120;28;20451;-75
2022/07/01 04:22:32;;;;;;;1.70;1.17;;;;;;;15.46;100.00;101374.91;4991641;28;20209;-76
2022/07/01 04:25:03;;;;;;;1.63;0.90;;;;;;;15.80;100.00;101468.34;4994436;28;20938;-72
2022/07/01 04:27:29;;;;;;;3.03;1.17;;;;;;;16.01;100.00;101502.31;4989250;28;20476;-71
2022/07/01 04:29:55;;;;;;;1.67;1.30;;;;;;;16.01;100.00;101510.44;4995600;28;20447;-72
2022/07/01 04:32:20;;;;;;;4.00;1.20;;;;;;;15.65;100.00;101426.38;4990953;28;20475;-72
2022/07/01 04:34:45;;;;;;;2.03;1.10;;;;;;;16.07;100.00;101506.03;4989114;28;20671;-73
2022/07/01 04:37:12;;;;;;;1.80;1.70;;;;;;;16.13;100.00;101509.72;4996406;28;20201;-72
2022/07/01 04:39:37;;;;;;;2.90;1.40;;;;;;;16.02;100.00;101505.84;4994195;28;20248;-72
2022/07/01 04:42:03;;;;;;;2.40;1.10;;;;;;;16.17;100.00;101495.56;5009170;28;20464;-72
2022/07/01 04:44:34;;;;;;;1.13;1.03;;;;;;;16.25;100.00;101513.38;5008764;28;20185;-72
2022/07/01 04:47:01;;;;;;;2.27;1.20;;;;;;;16.10;100.00;101523.69;4994825;28;20472;-72
2022/07/01 04:49:27;;;;;;;2.80;1.20;;;;;;;15.97;100.00;101516.50;4994705;28;20533;-75
2022/07/01 04:51:53;;;;;;;2.13;1.20;;;;;;;16.23;100.00;101519.03;4988503;28;20559;-72
2022/07/01 04:54:19;;;;;;;1.17;0.90;;;;;;;15.93;100.00;101507.16;4986120;28;21522;-75
2022/07/01 04:56:44;;;;;;;2.50;1.40;;;;;;;15.59;100.00;101503.78;4980730;28;20675;-72
2022/07/01 04:59:12;;;;;;;1.40;1.10;;;;;;;16.11;100.00;101553.22;5003831;28;20738;-74
2022/07/01 05:01:37;;;;;;;1.63;1.10;;;;;;;15.54;100.00;101499.03;5001609;28;20479;-73
2022/07/01 05:04:03;;;;;;;4.40;1.30;;;;;;;16.12;100.00;101557.63;4993932;28;20480;-72
2022/07/01 05:06:28;;;;;;;1.97;1.00;;;;;;;16.09;100.00;101552.66;4994437;28;20192;-73
2022/07/01 05:08:53;;;;;;;1.97;1.00;;;;;;;16.23;100.00;101556.94;4998815;28;20216;-73
2022/07/01 05:11:19;;;;;;;3.70;1.30;;;;;;;16.02;100.00;101530.19;4998343;28;20214;-72
2022/07/01 05:13:44;;;;;;;6.43;1.10;;;;;;;16.07;100.00;101562.03;4988534;28;20197;-73
2022/07/01 05:16:10;;;;;;;1.40;1.30;;;;;;;15.96;100.00;101569.78;4979062;28;20662;-75
2022/07/01 05:24:08;;;;;;;4.17;1.50;;;;;;;15.78;100.00;101585.91;4994902;28;20444;-73
2022/07/01 05:26:36;;;;;;;2.03;1.73;;;;;;;15.55;100.00;101562.03;4995106;28;20444;-72
2022/07/01 05:29:04;;;;;;;6.03;1.63;;;;;;;15.54;100.00;101550.41;4993576;28;20459;-75
2022/07/01 05:31:33;;;;;;;5.00;1.80;;;;;;;14.74;100.00;101395.00;4994909;28;20467;-76
2022/07/01 05:33:58;;;;;;;3.83;2.50;;;;;;;15.50;100.00;101595.13;4998801;28;20452;-74
2022/07/01 05:36:24;;;;;;;2.83;1.97;;;;;;;15.84;100.00;101605.84;4999996;28;21020;-74
2022/07/01 05:38:49;;;;;;;3.70;2.07;;;;;;;15.65;100.00;101589.47;5003420;28;20663;-74
2022/07/01 05:41:15;;;;;;;5.90;2.30;;;;;;;15.40;100.00;101548.78;5002743;28;20216;-75
2022/07/01 05:43:41;;;;;;;4.90;1.97;;;;;;;15.45;100.00;101592.25;5004645;28;20205;-75
2022/07/01 05:46:06;;;;;;;3.47;1.70;;;;;;;15.63;100.00;101582.63;4999169;28;20472;-75
2022/07/01 05:48:31;;;;;;;4.33;1.90;;;;;;;15.48;100.00;101596.41;4997978;28;20188;-75
2022/07/01 05:50:57;;;;;;;2.43;1.67;;;;;;;15.78;100.00;101615.66;5002201;28;20251;-75
2022/07/01 05:53:22;;;;;;;3.00;2.03;;;;;;;15.46;100.00;101574.97;5010788;28;20200;-75
2022/07/01 05:55:48;;;;;;;2.20;1.70;;;;;;;15.66;100.00;101591.13;4998035;28;20658;-75
2022/07/01 05:58:14;;;;;;;2.30;1.90;;;;;;;15.82;100.00;101606.06;4996099;28;20189;-75
2022/07/01 06:00:42;;;;;;;3.17;1.77;;;;;;;15.88;100.00;101605.22;4999422;28;20208;-75
2022/07/01 06:03:10;;;;;;;2.40;2.17;;;;;;;15.63;100.00;101585.31;5000781;28;20460;-74
2022/07/01 06:05:35;;;;;;;3.47;2.20;;;;;;;15.99;100.00;101607.22;5002761;28;20424;-74
2022/07/01 06:08:01;;;;;;;1.90;1.53;;;;;;;15.82;100.00;101579.84;5001896;28;20427;-74
2022/07/01 06:10:26;;;;;;;3.97;2.00;;;;;;;15.84;100.00;101608.56;5003260;28;20193;-74
2022/07/01 06:12:52;;;;;;;2.60;2.03;;;;;;;15.86;100.00;101598.34;5002576;28;20239;-74
2022/07/01 06:15:17;;;;;;;4.37;2.93;;;;;;;15.81;100.00;101609.81;4998538;28;20259;-74
2022/07/01 06:17:43;;;;;;;4.93;2.80;;;;;;;15.68;100.00;101613.41;5002413;28;20204;-73
2022/07/01 06:20:08;;;;;;;3.70;2.60;;;;;;;16.08;100.00;101605.09;5000821;28;20192;-74
2022/07/01 06:22:34;;;;;;;7.60;4.00;;;;;;;15.53;100.00;101612.78;4998995;28;20688;-77
2022/07/01 06:25:00;;;;;;;3.70;3.33;;;;;;;15.12;100.00;101543.66;4999837;28;20835;-73
2022/07/01 06:27:26;;;;;;;4.57;3.30;;;;;;;15.35;100.00;101598.06;4994862;28;20565;-74
2022/07/01 06:29:51;;;;;;;5.03;4.13;;;;;;;15.59;100.00;101609.22;4995362;28;20822;-74
2022/07/01 06:32:17;;;;;;;5.33;4.30;;;;;;;15.92;100.00;101625.38;4998136;28;20597;-74
2022/07/01 06:34:43;;;;;;;6.97;5.03;;;;;;;15.96;100.00;101629.28;4998212;28;20261;-74
2022/07/01 06:37:08;;;;;;;6.70;5.40;;;;;;;15.37;100.00;101550.03;4999635;28;20947;-74
2022/07/01 06:39:34;;;;;;;8.53;5.90;;;;;;;15.59;100.00;101601.13;4998681;28;20631;-74
2022/07/01 06:41:59;;;;;;;11.10;6.13;;;;;;;15.56;100.00;101605.09;4991746;28;20216;-74
2022/07/01 06:44:25;;;;;;;11.50;7.07;;;;;;;15.54;100.00;101603.66;4996672;28;20231;-74
2022/07/01 06:46:51;;;;;;;7.57;6.17;;;;;;;15.68;100.00;101620.66;4995998;28;20659;-73
2022/07/01 06:49:17;;;;;;;7.33;6.00;;;;;;;15.64;100.00;101593.19;4994023;28;20251;-73
2022/07/01 06:51:42;;;;;;;8.53;6.93;;;;;;;15.64;100.00;101609.44;5008714;28;20986;-73
2022/07/01 06:54:08;;;;;;;6.87;5.57;;;;;;;15.81;100.00;101599.81;4999901;28;20190;-73
2022/07/01 06:56:34;;;;;;;6.67;5.53;;;;;;;15.72;100.00;101555.13;4999472;28;20243;-74
2022/07/01 06:58:59;;;;;;;8.23;6.10;;;;;;;15.49;100.00;101496.13;5001695;28;20483;-74
2022/07/01 07:01:25;;;;;;;9.67;6.27;;;;;;;16.01;100.00;101588.91;5009456;28;20210;-74
2022/07/01 07:03:50;;;;;;;7.83;6.50;;;;;;;16.06;100.00;101590.16;5015500;28;20181;-74
2022/07/01 07:06:16;;;;;;;6.57;5.50;;;;;;;16.03;100.00;101588.69;5001241;28;20229;-74
2022/07/01 07:08:41;;;;;;;9.90;7.90;;;;;;;15.86;100.00;101568.59;5002084;28;20615;-74
2022/07/01 07:11:08;;;;;;;9.83;7.00;;;;;;;15.95;100.00;101589.78;5000614;28;20240;-74
2022/07/01 07:13:35;;;;;;;9.80;7.37;;;;;;;15.85;100.00;101548.81;4999999;28;20562;-73
2022/07/01 07:16:00;;;;;;;8.63;6.60;;;;;;;15.48;100.00;101504.47;4995264;28;20449;-75
2022/07/01 07:18:25;;;;;;;11.77;7.50;;;;;;;16.10;100.00;101581.34;4997457;28;20491;-74
2022/07/01 07:20:51;;;;;;;8.17;6.23;;;;;;;16.30;100.00;101573.13;4997936;28;20298;-73
2022/07/01 07:23:16;;;;;;;10.17;7.00;;;;;;;16.22;100.00;101584.19;5011567;28;20188;-76
2022/07/01 07:25:42;;;;;;;6.83;6.20;;;;;;;16.57;100.00;101589.97;4999947;28;20710;-76
2022/07/01 07:28:07;;;;;;;10.40;7.27;;;;;;;16.24;100.00;101561.28;4995175;28;20197;-74
2022/07/01 07:30:33;;;;;;;8.67;7.73;;;;;;;16.14;100.00;101577.19;4993029;28;20674;-76
2022/07/01 07:32:58;;;;;;;10.57;7.20;;;;;;;16.25;100.00;101570.22;4994731;28;20232;-74
2022/07/01 07:35:24;;;;;;;6.80;6.10;;;;;;;16.59;100.00;101563.50;4995661;28;20196;-73
2022/07/01 07:37:49;;;;;;;8.60;7.00;;;;;;;17.02;100.00;101595.25;4996014;28;20197;-75
2022/07/01 07:40:18;;;;;;;9.23;7.03;;;;;;;16.72;100.00;101563.41;4997294;28;20255;-75
2022/07/01 07:42:46;;;;;;;8.10;6.37;;;;;;;17.01;100.00;101609.88;4994632;28;20208;-76
2022/07/01 07:45:13;;;;;;;11.07;7.30;;;;;;;17.13;100.00;101613.50;4997083;28;20444;-74
2022/07/01 07:47:43;;;;;;;11.43;7.57;;;;;;;17.02;100.00;101622.38;5001338;28;20439;-73
2022/07/01 07:50:08;;;;;;;8.20;7.27;;;;;;;17.27;100.00;101594.38;4996007;28;20457;-74
2022/07/01 07:52:34;;;;;;;7.23;6.20;;;;;;;17.39;100.00;101604.28;4993551;28;20456;-74
2022/07/01 07:55:00;;;;;;;8.17;5.93;;;;;;;17.57;100.00;101608.84;4998049;28;20704;-74
2022/07/01 07:57:25;;;;;;;12.33;8.00;;;;;;;17.02;100.00;101594.44;5015817;28;20177;-73
2022/07/01 07:59:51;;;;;;;10.97;7.87;;;;;;;16.73;100.00;101589.44;5000510;28;20216;-74
2022/07/01 08:02:16;;;;;;;9.80;6.20;;;;;;;16.89;100.00;101612.50;4998168;28;20228;-74
2022/07/01 08:04:41;;;;;;;6.20;5.60;;;;;;;16.92;100.00;101586.81;5000729;28;20205;-73
2022/07/01 08:07:07;;;;;;;10.70;6.20;;;;;;;16.59;100.00;101530.19;5012976;28;20182;-74
2022/07/01 08:09:34;;;;;;;8.67;5.90;;;;;;;17.06;100.00;101626.28;4994763;28;20186;-74
2022/07/01 08:12:00;;;;;;;16.57;6.30;;;;;;;16.93;100.00;101623.72;4991600;28;20205;-73
2022/07/01 08:14:26;;;;;;;8.37;6.00;;;;;;;17.18;100.00;101631.78;4995470;28;20458;-76
2022/07/01 08:16:52;;;;;;;6.80;5.60;;;;;;;17.35;100.00;101622.03;4991598;28;20502;-73
2022/07/01 08:19:17;;;;;;;8.10;5.10;;;;;;;17.11;100.00;101572.22;4988675;28;21009;-74
2022/07/01 08:21:43;;;;;;;5.97;5.33;;;;;;;17.41;100.00;101579.63;4992763;28;20205;-76
2022/07/01 08:24:08;;;;;;;9.73;5.93;;;;;;;17.15;100.00;101548.22;4995081;28;20196;-73
2022/07/01 08:26:34;;;;;;;8.20;5.63;;;;;;;17.16;100.00;101628.50;4997725;28;20564;-74
2022/07/01 08:28:59;;;;;;;6.97;5.00;;;;;;;17.29;100.00;101641.91;4992547;28;20192;-75
2022/07/01 08:31:24;;;;;;;7.87;4.40;;;;;;;17.50;100.00;101624.41;4994627;28;20215;-74
2022/07/01 08:33:50;;;;;;;5.50;4.23;;;;;;;17.63;100.00;101599.00;4992294;28;20196;-74
2022/07/01 08:36:15;;;;;;;12.20;6.33;;;;;;;17.29;100.00;101612.09;4994803;28;20189;-75
2022/07/01 08:38:41;;;;;;;8.43;6.17;;;;;;;17.60;100.00;101640.13;4992330;28;20196;-74
2022/07/01 08:41:07;;;;;;;8.07;5.60;;;;;;;17.72;100.00;101604.94;4990898;28;20221;-74
2022/07/01 08:43:33;;;;;;;9.17;7.33;;;;;;;17.60;100.00;101629.28;4997173;28;20280;-74
2022/07/01 08:46:03;;;;;;;10.13;8.53;;;;;;;16.82;100.00;101581.06;4996300;28;20243;-75
2022/07/01 08:48:29;;;;;;;9.03;7.33;;;;;;;17.71;100.00;101641.28;4995005;28;20594;-74
2022/07/01 08:50:55;;;;;;;9.03;7.30;;;;;;;18.00;100.00;101626.13;4993726;28;20450;-74
2022/07/01 08:53:21;;;;;;;9.33;6.80;;;;;;;17.62;100.00;101602.75;4995161;28;20447;-74
2022/07/01 08:58:30;;;;;;;9.57;8.00;;;;;;;17.72;100.00;101632.88;4999746;28;20204;-72
2022/07/01 09:01:22;;;;;;;10.73;7.93;;;;;;;17.53;100.00;101659.19;4996047;28;20467;-72
2022/07/01 09:03:53;;;;;;;11.00;7.17;;;;;;;17.66;100.00;101595.81;4997736;28;20189;-72
2022/07/01 09:06:19;;;;;;;8.60;7.80;;;;;;;17.67;100.00;101650.91;5012366;28;20833;-73
2022/07/01 09:08:46;;;;;;;6.40;5.50;;;;;;;18.05;100.00;101656.09;5018417;28;20435;-72
2022/07/01 09:11:20;;;;;;;10.73;8.40;;;;;;;17.44;100.00;101659.69;5002401;28;20867;-72
2022/07/01 09:14:08;;;;;;;13.10;7.20;;;;;;;17.02;100.00;101624.25;5002479;28;20460;-72
2022/07/01 09:16:51;;;;;;;12.23;6.10;;;;;;;17.20;100.00;101605.28;5002923;28;20902;-72
2022/07/01 09:19:19;;;;;;;10.17;8.07;;;;;;;17.12;100.00;101619.97;4999458;28;20898;-73
2022/07/01 09:22:05;;;;;;;6.70;5.70;;;;;;;17.97;100.00;101634.72;5000815;28;20491;-72
2022/07/01 09:24:37;;;;;;;9.23;6.93;;;;;;;18.04;100.00;101632.72;5005780;28;20487;-72
2022/07/01 09:27:16;;;;;;;8.00;7.03;;;;;;;17.86;100.00;101651.78;5003113;28;20945;-72
2022/07/01 09:29:44;;;;;;;14.13;9.97;;;;;;;17.44;100.00;101674.09;5001594;28;20451;-72
2022/07/01 09:32:12;;;;;;;9.20;8.00;;;;;;;17.54;100.00;101676.31;5001265;28;20460;-73
2022/07/01 09:34:48;;;;;;;14.80;8.70;;;;;;;17.34;100.00;101680.03;5001784;28;20448;-73
2022/07/01 09:37:24;;;;;;;10.70;8.33;;;;;;;17.20;100.00;101689.34;5012437;28;20435;-72
2022/07/01 09:39:57;;;;;;;8.37;7.40;;;;;;;17.30;100.00;101695.09;4999297;28;20435;-73
2022/07/01 09:42:26;;;;;;;9.10;7.07;;;;;;;17.36;100.00;101671.69;5001099;28;20904;-72
2022/07/01 09:44:58;;;;;;;8.17;7.47;;;;;;;17.65;100.00;101693.69;5003381;28;20494;-72
2022/07/01 09:47:25;;;;;;;18.53;7.93;;;;;;;17.32;100.00;101708.41;5001301;28;20417;-73
2022/07/01 09:49:51;;;;;;;9.10;7.47;;;;;;;17.24;100.00;101704.13;5002688;28;20459;-72
2022/07/01 09:52:18;;;;;;;8.57;7.53;;;;;;;17.29;100.00;101709.69;4999406;28;20456;-72
2022/07/01 09:54:49;;;;;;;9.23;8.13;;;;;;;17.08;100.00;101686.53;5003171;28;20969;-72
2022/07/01 09:57:16;;;;;;;12.73;8.80;;;;;;;17.09;100.00;101692.78;4997415;28;20848;-72
2022/07/01 09:59:41;;;;;;;6.90;6.13;;;;;;;17.54;100.00;101701.53;4998272;28;20513;-72
2022/07/01 10:02:11;;;;;;;8.40;6.83;;;;;;;17.42;100.00;101697.09;5015459;28;20480;-72
2022/07/01 10:04:39;;;;;;;15.70;7.40;;;;;;;17.36;100.00;101718.59;5004731;28;20222;-72
2022/07/01 10:07:11;;;;;;;9.00;6.40;;;;;;;17.70;100.00;101710.97;5011896;28;20453;-72
2022/07/01 10:09:54;;;;;;;12.10;7.80;;;;;;;17.79;100.00;101723.22;4998655;28;20448;-72
2022/07/01 10:12:33;;;;;;;8.30;7.40;;;;;;;17.86;100.00;101719.63;4994033;28;20483;-72
2022/07/01 10:15:01;;;;;;;9.53;6.70;;;;;;;18.03;100.00;101682.66;4996762;28;20436;-72
2022/07/01 10:17:32;;;;;;;6.37;5.13;;;;;;;18.35;100.00;101704.19;4995086;28;20455;-73
2022/07/01 10:20:08;;;;;;;8.47;6.97;;;;;;;18.14;100.00;101725.34;4997392;28;20425;-73
2022/07/01 10:22:36;;;;;;;7.67;5.83;;;;;;;18.35;100.00;101705.00;4998804;28;20885;-73
2022/07/01 10:25:29;;;;;;;9.63;6.57;;;;;;;18.25;100.00;101704.72;4996266;28;20440;-73
2022/07/01 10:28:21;;;;;;;6.20;5.17;;;;;;;18.31;100.00;101698.34;4999908;28;20436;-73
2022/07/01 10:30:50;;;;;;;4.70;4.23;;;;;;;18.37;100.00;101707.47;4996506;28;20428;-73
2022/07/01 10:33:40;;;;;;;6.43;4.30;;;;;;;18.52;100.00;101699.75;5000357;28;20447;-73
2022/07/01 10:36:26;;;;;;;5.57;5.00;;;;;;;18.10;100.00;101672.53;4998517;28;20843;-75
2022/07/01 10:39:10;;;;;;;6.83;5.60;;;;;;;18.07;100.00;101700.13;4996434;28;20464;-73
2022/07/01 10:41:36;;;;;;;8.73;6.20;;;;;;;18.21;100.00;101704.34;4996759;28;20472;-73
2022/07/01 10:44:05;;;;;;;12.57;5.47;;;;;;;17.77;100.00;101635.75;5010232;28;21376;-73
2022/07/01 10:46:45;;;;;;;6.83;4.07;;;;;;;18.55;100.00;101688.44;4994462;28;20522;-73
2022/07/01 10:49:19;;;;;;;5.47;3.43;;;;;;;18.69;100.00;101679.03;5002513;28;20436;-72
2022/07/01 10:51:52;;;;;;;4.97;3.17;;;;;;;18.94;100.00;101650.84;4994878;28;20459;-72
2022/07/01 10:54:36;;;;;;;7.93;4.27;;;;;;;18.52;100.00;101673.44;4997123;28;20437;-72
2022/07/01 10:57:37;;;;;;;3.90;3.00;;;;;;;18.85;100.00;101649.53;5001184;28;20420;-72
2022/07/01 11:00:02;;;;;;;6.23;3.90;;;;;;;18.89;100.00;101669.75;5000988;28;20448;-72
2022/07/01 11:02:32;;;;;;;9.27;4.30;;;;;;;18.64;100.00;101670.75;4999283;28;20479;-72
2022/07/01 11:05:05;;;;;;;5.20;3.80;;;;;;;18.70;100.00;101641.81;5001494;28;20267;-72
2022/07/01 11:07:33;;;;;;;4.30;2.50;;;;;;;19.20;100.00;101644.13;4999717;28;20458;-72
2022/07/01 11:10:01;;;;;;;4.93;2.40;;;;;;;19.54;100.00;101677.81;5000519;28;20463;-72
2022/07/01 11:12:28;;;;;;;4.87;3.00;;;;;;;19.03;100.00;101676.63;4995913;28;20451;-73
2022/07/01 11:14:58;;;;;;;4.10;2.30;;;;;;;19.20;100.00;101671.31;4999144;28;20435;-73
2022/07/01 11:17:25;;;;;;;8.73;3.03;;;;;;;19.14;100.00;101674.97;4996119;28;20517;-73
2022/07/01 11:19:53;;;;;;;5.27;2.40;;;;;;;19.09;100.00;101672.13;4996881;28;20437;-72
2022/07/01 11:22:24;;;;;;;4.50;2.73;;;;;;;19.30;100.00;101660.69;4995356;28;20480;-73
2022/07/01 11:24:54;;;;;;;5.80;2.80;;;;;;;18.92;100.00;101642.13;4993797;28;20435;-72
2022/07/01 11:27:21;;;;;;;4.40;3.23;;;;;;;18.87;100.00;101653.69;5000305;28;20447;-72
2022/07/01 11:29:54;;;;;;;6.77;3.93;;;;;;;19.03;100.00;101649.44;5000440;28;20471;-73